createdAt,value
2022-12-28T00:03:39.815Z,5.5
2022-12-28T00:09:02.108Z,5.5
2022-12-28T00:15:14.420Z,5.6
2022-12-28T00:20:37.527Z,5.6
2022-12-28T00:26:01.643Z,5.8
2022-12-28T00:31:25.769Z,5.9
2022-12-28T00:37:29.680Z,5.9
2022-12-28T00:43:00.087Z,5.9
2022-12-28T00:48:21.788Z,5.9
2022-12-28T00:53:45.013Z,5.8
2022-12-28T00:59:07.366Z,5.8
2022-12-28T01:04:30.687Z,5.8
2022-12-28T01:09:38.239Z,5.7
2022-12-28T01:15:00.799Z,5.7
2022-12-28T01:20:11.759Z,5.7
2022-12-28T01:25:34.111Z,5.7
2022-12-28T01:30:57.006Z,5.8
2022-12-28T01:36:03.751Z,5.8
2022-12-28T01:41:26.337Z,5.7
2022-12-28T01:46:56.671Z,5.7
2022-12-28T01:52:03.763Z,5.6
2022-12-28T01:57:10.862Z,5.6
2022-12-28T02:02:19.641Z,5.6
2022-12-28T02:07:26.391Z,5.6
2022-12-28T02:13:38.175Z,5.6
2022-12-28T02:18:34.577Z,5.5
2022-12-28T02:23:56.224Z,5.4
2022-12-28T02:29:01.027Z,5.4
2022-12-28T02:34:25.045Z,5.4
2022-12-28T02:39:47.205Z,5.4
2022-12-28T02:44:54.532Z,5.3
2022-12-28T02:50:16.705Z,5.3
2022-12-28T02:55:23.569Z,5.4
2022-12-28T03:00:47.134Z,5.4
2022-12-28T03:05:54.694Z,5.3
2022-12-28T03:11:23.420Z,5.3
2022-12-28T03:16:34.053Z,5.4
2022-12-28T03:21:40.390Z,5.3
2022-12-28T03:26:46.901Z,5.4
2022-12-28T03:32:09.909Z,5.3
2022-12-28T03:37:31.476Z,5.3
2022-12-28T03:42:53.894Z,5.2
2022-12-28T03:48:41.126Z,5.1
2022-12-28T03:54:02.678Z,5
2022-12-28T03:59:24.602Z,4.9
2022-12-28T04:04:48.774Z,4.8
2022-12-28T04:10:11.179Z,4.8
2022-12-28T04:15:38.698Z,4.8
2022-12-28T04:21:01.737Z,4.8
2022-12-28T04:26:23.342Z,4.8
2022-12-28T04:31:29.837Z,4.8
2022-12-28T04:36:21.507Z,4.8
2022-12-28T04:41:41.831Z,4.8
2022-12-28T04:47:07.491Z,4.8
2022-12-28T04:52:14.805Z,4.8
2022-12-28T04:57:53.306Z,4.8
2022-12-28T05:03:22.368Z,4.8
2022-12-28T05:08:33.830Z,4.8
2022-12-28T05:13:56.548Z,4.9
2022-12-28T05:19:10.313Z,4.8
2022-12-28T05:24:22.868Z,4.8
2022-12-28T05:29:45.522Z,4.8
2022-12-28T05:35:09.345Z,4.8
2022-12-28T05:40:33.029Z,4.8
2022-12-28T05:45:45.826Z,4.8
2022-12-28T05:51:13.555Z,4.8
2022-12-28T05:56:40.411Z,4.8
2022-12-28T06:01:47.042Z,4.9
2022-12-28T06:07:14.554Z,4.8
2022-12-28T06:12:39.812Z,4.8
2022-12-28T06:17:47.385Z,4.9
2022-12-28T06:23:00.269Z,4.9
2022-12-28T06:28:23.016Z,4.9
2022-12-28T06:33:47.521Z,4.9
2022-12-28T06:39:14.300Z,4.9
2022-12-28T06:45:04.135Z,5
2022-12-28T06:50:27.401Z,5.1
2022-12-28T06:55:49.809Z,5.1
2022-12-28T07:01:04.054Z,5.3
2022-12-28T07:06:28.599Z,5.3
2022-12-28T07:11:56.054Z,5.4
2022-12-28T07:17:25.101Z,5.6
2022-12-28T07:22:47.654Z,5.8
2022-12-28T07:27:55.089Z,6.2
2022-12-28T07:33:10.046Z,6.9
2022-12-28T07:38:38.785Z,8.1
2022-12-28T07:44:01.682Z,9.1
2022-12-28T07:49:28.484Z,9.9
2022-12-28T07:54:55.141Z,10.5
2022-12-28T08:00:23.039Z,10.8
2022-12-28T08:05:32.627Z,11
2022-12-28T08:10:24.045Z,11.1
2022-12-28T08:15:31.495Z,11.1
2022-12-28T08:20:56.266Z,11.1
2022-12-28T08:26:03.248Z,11
2022-12-28T08:31:10.547Z,10.9
2022-12-28T08:36:02.725Z,10.9
2022-12-28T08:41:14.848Z,10.8
2022-12-28T08:46:22.564Z,10.6
2022-12-28T08:51:48.909Z,10.5
2022-12-28T08:57:18.546Z,10.4
2022-12-28T09:02:26.503Z,10.4
2022-12-28T09:07:59.791Z,10.3
2022-12-28T09:13:22.543Z,10.1
2022-12-28T09:18:38.605Z,10.1
2022-12-28T09:23:30.617Z,10.1
2022-12-28T09:28:38.494Z,10.2
2022-12-28T09:34:42.320Z,10.4
2022-12-28T09:39:49.801Z,10.8
2022-12-28T09:45:12.682Z,11.4
2022-12-28T09:50:35.905Z,11.8
2022-12-28T09:56:01.972Z,12.3
2022-12-28T10:01:08.660Z,12.6
2022-12-28T10:06:01.872Z,12.8
2022-12-28T10:11:09.180Z,13.1
2022-12-28T10:16:56.224Z,13.4
2022-12-28T10:22:28.328Z,13.8
2022-12-28T10:28:32.232Z,14.7
2022-12-28T10:33:58.695Z,15.6
2022-12-28T10:39:30.249Z,16.4
2022-12-28T11:04:51.623Z,17.9
2022-12-28T11:10:14.665Z,17.8
2022-12-28T11:15:26.753Z,17.5
2022-12-28T11:20:40.953Z,17.1
2022-12-28T11:26:08.351Z,16.6
2022-12-28T11:31:32.942Z,16.1
2022-12-28T11:36:27.819Z,15.6
2022-12-28T11:41:35.885Z,15.2
2022-12-28T11:47:46.034Z,14.8
2022-12-28T11:53:12.180Z,14.6
2022-12-28T11:58:21.466Z,14.4
2022-12-28T12:03:50.445Z,14.4
2022-12-28T12:08:57.481Z,14.4
2022-12-28T12:14:22.145Z,14.5
2022-12-28T12:19:47.721Z,14.5
2022-12-28T12:25:16.135Z,14.6
2022-12-28T12:30:41.319Z,14.7
2022-12-28T12:35:48.772Z,14.6
2022-12-28T12:41:11.127Z,14.3
2022-12-28T12:46:34.777Z,13.9
2022-12-28T12:51:56.091Z,13.4
2022-12-28T12:57:18.591Z,13
2022-12-28T13:02:42.959Z,12.7
2022-12-28T13:08:05.844Z,12.4
2022-12-28T13:13:31.556Z,12.1
2022-12-28T13:19:11.489Z,11.7
2022-12-28T13:24:39.310Z,11.4
2022-12-28T13:30:05.902Z,11.2
2022-12-28T13:35:32.908Z,10.9
2022-12-28T13:40:24.703Z,10.8
2022-12-28T13:45:50.868Z,10.5
2022-12-28T13:51:14.145Z,10.3
2022-12-28T13:56:42.938Z,10.1
2022-12-28T14:02:50.217Z,9.8
2022-12-28T14:09:03.829Z,9.6
2022-12-28T14:14:27.928Z,9.4
2022-12-28T14:19:58.173Z,9.3
2022-12-28T14:25:24.715Z,9
2022-12-28T14:30:35.956Z,8.8
2022-12-28T15:13:56.651Z,7.2
2022-12-28T15:19:04.802Z,7
2022-12-28T15:24:12.025Z,6.8
2022-12-28T15:29:39.881Z,6.7
2022-12-28T15:35:25.137Z,6.5
2022-12-28T15:40:34.251Z,6.3
2022-12-28T15:45:30.141Z,6.3
2022-12-28T15:50:26.640Z,6.1
2022-12-28T15:55:35.086Z,6
2022-12-28T16:00:47.258Z,5.9
2022-12-28T16:05:57.918Z,5.8
2022-12-28T16:11:20.335Z,5.8
2022-12-28T16:16:45.409Z,5.6
2022-12-28T16:21:58.713Z,5.4
2022-12-28T16:26:50.154Z,5.3
2022-12-28T16:32:02.552Z,5.1
2022-12-28T16:37:12.091Z,5
2022-12-28T16:42:18.778Z,4.9
2022-12-28T16:47:26.262Z,4.9
2022-12-28T16:52:35.638Z,4.9
2022-12-28T16:57:58.359Z,4.9
2022-12-28T17:03:24.501Z,4.8
2022-12-28T17:08:53.774Z,4.8
2022-12-28T17:14:37.187Z,4.8
2022-12-28T17:20:00.995Z,4.8
2022-12-28T17:25:24.414Z,4.8
2022-12-28T17:30:54.286Z,4.8
2022-12-28T17:36:17.413Z,4.8
2022-12-28T17:41:44.032Z,4.8
2022-12-28T17:46:57.140Z,4.8
2022-12-28T17:52:23.669Z,4.6
2022-12-28T17:57:49.286Z,4.6
2022-12-28T18:03:14.190Z,4.5
2022-12-28T18:08:25.276Z,4.5
2022-12-28T18:13:47.592Z,4.5
2022-12-28T18:19:16.894Z,4.4
2022-12-28T18:24:46.843Z,4.4
2022-12-28T18:29:53.924Z,4.4
2022-12-28T18:35:19.417Z,4.4
2022-12-28T18:40:48.280Z,4.4
2022-12-28T18:45:40.333Z,4.4
2022-12-28T18:51:03.591Z,4.4
2022-12-28T18:56:15.290Z,4.4
2022-12-28T19:02:21.656Z,4.4
2022-12-28T19:07:31.936Z,4.4
2022-12-28T19:12:48.294Z,4.5
2022-12-28T19:18:16.343Z,4.5
2022-12-28T19:23:43.880Z,4.5
2022-12-28T19:29:06.655Z,4.6
2022-12-28T19:34:32.246Z,4.7
2022-12-28T19:39:57.873Z,4.7
2022-12-28T19:45:27.343Z,4.8
2022-12-28T19:50:50.610Z,4.8
2022-12-28T19:56:20.530Z,4.8
2022-12-28T20:01:44.911Z,4.9
2022-12-28T20:07:09.805Z,4.9
2022-12-28T20:12:17.407Z,4.9
2022-12-28T20:17:41.304Z,4.9
2022-12-28T20:23:23.103Z,4.9
2022-12-28T20:28:47.173Z,4.9
2022-12-28T20:33:58.382Z,4.9
2022-12-28T20:38:49.841Z,4.9
2022-12-28T20:43:57.125Z,4.9
2022-12-28T20:48:34.337Z,4.8
2022-12-28T20:53:26.392Z,4.8
2022-12-28T20:58:42.102Z,4.8
2022-12-28T21:03:50.363Z,4.7
2022-12-28T21:08:57.927Z,4.6
2022-12-28T21:13:49.839Z,4.5
2022-12-28T21:18:58.318Z,4.3
2022-12-28T21:24:07.107Z,4.2
2022-12-28T21:29:30.217Z,4.1
2022-12-28T21:34:54.319Z,4
2022-12-28T21:40:07.838Z,3.9
2022-12-28T21:44:59.734Z,3.9
2022-12-28T21:50:22.681Z,3.9
2022-12-28T21:55:29.895Z,3.9
2022-12-28T22:00:36.964Z,3.8
2022-12-28T22:05:50.044Z,3.9
2022-12-28T22:10:57.600Z,3.8
2022-12-28T22:16:20.275Z,3.9
2022-12-28T22:22:14.247Z,3.9
2022-12-28T22:27:37.071Z,4
2022-12-28T22:32:44.782Z,4
2022-12-28T22:38:09.841Z,4.1
2022-12-28T22:43:17.414Z,4.1
2022-12-28T22:48:41.192Z,4.1
2022-12-28T22:53:54.980Z,4.1
2022-12-28T22:59:04.869Z,4.1
2022-12-28T23:04:29.450Z,4.1
2022-12-28T23:09:58.054Z,4.1
2022-12-28T23:14:49.721Z,4.2
2022-12-28T23:20:13.461Z,4.2
2022-12-28T23:25:36.623Z,4.3
2022-12-28T23:30:28.117Z,4.3
2022-12-28T23:35:20.436Z,4.3
2022-12-28T23:40:43.591Z,4.3
2022-12-28T23:45:49.537Z,4.3
2022-12-28T23:51:00.089Z,4.3
2022-12-28T23:56:09.574Z,4.3
